Time;durP1;ratioP1;P1;durP2;ratioP2;P2;SDS_P1;SDS_P2;PMS_P1;PMS_P2;Temp;Humidity;BMP_temperature;BMP_pressure;BME280_temperature;BME280_humidity;BME280_pressure;Samples;Min_cycle;Max_cycle;Signal;HPM_P1;HPM_P2
2022/10/21 00:00:54;;;;;;;127.45;42.70;;;;;;;13.38;100.00;93023.34;4957892;28;20035;-79
2022/10/21 00:03:20;;;;;;;123.15;43.38;;;;;;;13.36;100.00;93019.47;4956475;29;20130;-79
2022/10/21 00:05:49;;;;;;;130.05;44.47;;;;;;;13.36;100.00;93022.88;4940549;29;20178;-79
2022/10/21 00:08:16;;;;;;;112.82;41.35;;;;;;;13.37;100.00;93023.63;4940529;29;20055;-79
2022/10/21 00:11:18;;;;;;;133.25;44.13;;;;;;;13.38;100.00;93022.59;4958698;29;20039;-79
2022/10/21 00:13:44;;;;;;;137.27;44.13;;;;;;;13.37;100.00;93013.88;4959588;29;20038;-78
2022/10/21 00:16:16;;;;;;;133.45;44.70;;;;;;;13.35;100.00;93010.00;4958748;29;20121;-78
2022/10/21 00:19:02;;;;;;;138.15;46.08;;;;;;;13.34;100.00;92996.06;4957987;28;20031;-79
2022/10/21 00:21:28;;;;;;;136.82;43.83;;;;;;;13.30;100.00;92982.72;4957572;29;20039;-79
2022/10/21 00:23:53;;;;;;;130.35;44.55;;;;;;;13.33;100.00;92992.69;4941537;29;20085;-78
2022/10/21 00:26:40;;;;;;;122.03;41.72;;;;;;;13.33;100.00;93002.41;4941084;29;20047;-79
2022/10/21 00:29:05;;;;;;;111.10;40.05;;;;;;;13.29;100.00;92996.94;4958394;28;20418;-79
2022/10/21 00:31:53;;;;;;;116.25;40.33;;;;;;;13.28;100.00;92999.84;4958750;28;20032;-79
2022/10/21 00:34:21;;;;;;;124.00;40.15;;;;;;;13.25;100.00;93003.03;4958566;29;20042;-78
2022/10/21 00:36:47;;;;;;;119.25;40.03;;;;;;;13.22;100.00;92998.38;4957285;29;20421;-79
2022/10/21 00:39:12;;;;;;;118.20;40.00;;;;;;;13.21;100.00;92997.56;4956860;28;20032;-79
2022/10/21 00:41:40;;;;;;;115.80;39.90;;;;;;;13.19;100.00;92986.56;4955641;28;20054;-78
2022/10/21 00:44:10;;;;;;;117.60;40.80;;;;;;;13.17;100.00;92985.31;4956050;29;20070;-78
2022/10/21 00:50:39;;;;;;;126.63;42.88;;;;;;;13.19;100.00;92985.78;4881283;29;20044;-78
2022/10/21 00:53:08;;;;;;;107.38;39.03;;;;;;;13.15;100.00;92975.09;4953325;29;20433;-78
2022/10/21 00:55:38;;;;;;;116.57;41.38;;;;;;;13.11;100.00;92971.47;4938754;29;20039;-78
2022/10/21 00:58:41;;;;;;;118.82;40.97;;;;;;;13.11;100.00;92977.50;4936897;29;20036;-78
2022/10/21 01:01:07;;;;;;;113.72;40.35;;;;;;;13.11;100.00;92969.63;4955298;29;20031;-78
2022/10/21 01:03:34;;;;;;;113.22;40.40;;;;;;;13.12;100.00;92973.78;4940385;29;20019;-78
2022/10/21 01:06:03;;;;;;;127.35;41.53;;;;;;;13.10;100.00;92962.03;4955950;29;20046;-78
2022/10/21 01:08:29;;;;;;;120.82;39.40;;;;;;;13.11;100.00;92960.97;4956282;29;20535;-78
2022/10/21 01:10:56;;;;;;;122.35;41.00;;;;;;;13.09;100.00;92956.00;4956766;29;20038;-78
2022/10/21 01:17:08;;;;;;;107.43;39.13;;;;;;;13.07;100.00;92963.38;4957373;29;20062;-79
2022/10/21 01:23:21;;;;;;;108.85;39.90;;;;;;;13.11;100.00;92956.47;4954792;29;20078;-79
2022/10/21 01:32:47;;;;;;;116.53;41.25;;;;;;;13.05;100.00;92933.22;4950167;29;20094;-78
2022/10/21 01:35:19;;;;;;;123.55;40.60;;;;;;;13.05;100.00;92933.97;4940390;29;20103;-79
2022/10/21 01:41:06;;;;;;;122.43;41.28;;;;;;;13.07;100.00;92934.47;4938244;29;20044;-78
2022/10/21 01:44:01;;;;;;;107.75;39.45;;;;;;;13.06;100.00;92922.41;4956093;29;20039;-78
2022/10/21 01:46:41;;;;;;;113.50;40.67;;;;;;;13.05;100.00;92923.47;4953284;29;20050;-78
2022/10/21 01:49:16;;;;;;;122.75;42.15;;;;;;;13.06;100.00;92924.25;4936744;29;20032;-79
2022/10/21 01:51:42;;;;;;;115.78;41.75;;;;;;;13.05;100.00;92920.06;4938187;29;20050;-78
2022/10/21 01:54:15;;;;;;;112.20;41.10;;;;;;;13.07;100.00;92928.44;4956083;29;20059;-78
2022/10/21 01:56:43;;;;;;;115.63;41.53;;;;;;;13.06;100.00;92922.41;4952647;28;20045;-79
2022/10/21 01:59:11;;;;;;;126.45;42.88;;;;;;;13.07;100.00;92923.97;4937245;29;20067;-78
2022/10/21 02:01:38;;;;;;;119.38;43.05;;;;;;;13.06;100.00;92925.03;4937568;29;20042;-78
2022/10/21 02:04:07;;;;;;;124.40;43.35;;;;;;;13.09;100.00;92918.41;4936567;29;20103;-79
2022/10/21 02:06:34;;;;;;;126.70;46.60;;;;;;;13.08;100.00;92920.28;4948529;29;20035;-79
2022/10/21 02:09:00;;;;;;;135.88;45.78;;;;;;;13.09;100.00;92919.19;4954206;28;20045;-78
2022/10/21 02:11:27;;;;;;;119.45;44.20;;;;;;;13.10;100.00;92909.44;4953769;28;20050;-77
2022/10/21 02:14:11;;;;;;;130.50;43.83;;;;;;;13.11;100.00;92906.53;4952270;28;20050;-78
2022/10/21 02:16:39;;;;;;;126.82;44.05;;;;;;;13.13;100.00;92912.28;4947519;29;20441;-78
2022/10/21 02:19:13;;;;;;;124.97;45.83;;;;;;;13.11;100.00;92906.53;4953953;28;20035;-78
2022/10/21 02:21:39;;;;;;;122.82;45.08;;;;;;;13.11;100.00;92905.78;4953924;29;20038;-79
2022/10/21 02:24:22;;;;;;;131.00;46.40;;;;;;;13.10;100.00;92912.09;4951631;29;20027;-78
2022/10/21 02:26:47;;;;;;;138.90;46.78;;;;;;;13.10;100.00;92910.25;4959577;28;20712;-78
2022/10/21 02:29:20;;;;;;;123.00;46.38;;;;;;;13.09;100.00;92903.44;4951926;28;20536;-78
2022/10/21 02:32:01;;;;;;;136.30;47.90;;;;;;;13.07;100.00;92897.69;4954206;28;20073;-78
2022/10/21 02:35:04;;;;;;;133.43;46.53;;;;;;;13.07;100.00;92895.06;4952801;29;20618;-79
2022/10/21 02:37:36;;;;;;;139.75;45.78;;;;;;;13.06;100.00;92896.13;4954347;29;20118;-78
2022/10/21 02:40:08;;;;;;;128.15;46.25;;;;;;;13.07;100.00;92892.41;4953339;28;20482;-78
2022/10/21 02:42:38;;;;;;;125.32;46.60;;;;;;;13.03;100.00;92883.56;4956824;29;20035;-78
2022/10/21 02:45:26;;;;;;;140.35;46.55;;;;;;;13.05;100.00;92886.66;4951694;28;20084;-78
2022/10/21 02:47:52;;;;;;;135.23;46.45;;;;;;;13.04;100.00;92877.25;4955954;29;20056;-78
2022/10/21 02:50:18;;;;;;;137.75;48.90;;;;;;;13.04;100.00;92874.63;4956581;29;20062;-77
2022/10/21 02:52:45;;;;;;;117.68;44.00;;;;;;;13.02;100.00;92870.72;4957651;28;20071;-78
2022/10/21 02:55:11;;;;;;;130.27;44.67;;;;;;;13.01;100.00;92872.56;4957407;29;20063;-77
2022/10/21 02:57:36;;;;;;;133.05;44.97;;;;;;;13.00;100.00;92865.75;4941720;29;20028;-77
2022/10/21 03:00:21;;;;;;;120.07;46.42;;;;;;;12.99;100.00;92866.84;4939748;29;20095;-79
2022/10/21 03:02:46;;;;;;;117.40;43.42;;;;;;;12.98;100.00;92859.22;4939274;29;20044;-78
2022/10/21 03:05:12;;;;;;;130.18;44.28;;;;;;;12.99;100.00;92872.09;4955903;29;20031;-78
2022/10/21 03:07:38;;;;;;;118.28;43.42;;;;;;;12.99;100.00;92860.78;4956403;29;20081;-78
2022/10/21 03:10:11;;;;;;;124.28;44.95;;;;;;;12.99;100.00;92861.56;4946476;28;20044;-78
2022/10/21 03:12:36;;;;;;;128.35;44.72;;;;;;;12.99;100.00;92861.56;4939332;29;20087;-78
2022/10/21 03:15:02;;;;;;;120.40;43.67;;;;;;;12.97;100.00;92858.47;4954484;29;20078;-79
2022/10/21 03:17:28;;;;;;;114.68;44.70;;;;;;;12.97;100.00;92865.53;4939735;29;20118;-78
2022/10/21 03:19:53;;;;;;;124.47;45.08;;;;;;;12.97;100.00;92868.97;4940216;29;20075;-78
2022/10/21 03:22:19;;;;;;;128.35;45.92;;;;;;;12.90;100.00;92863.28;4941468;29;20451;-79
2022/10/21 03:24:47;;;;;;;134.30;46.38;;;;;;;12.98;100.00;92877.63;4957520;28;20031;-78
2022/10/21 03:27:12;;;;;;;124.10;44.75;;;;;;;12.98;100.00;92870.50;4957025;28;20413;-78
2022/10/21 03:29:38;;;;;;;124.93;44.25;;;;;;;12.99;100.00;92861.56;4948463;28;20035;-78
2022/10/21 03:32:05;;;;;;;123.65;45.05;;;;;;;12.99;100.00;92852.91;4923797;29;20039;-78
2022/10/21 03:34:31;;;;;;;137.15;46.70;;;;;;;12.99;100.00;92856.31;4939413;29;20044;-79
2022/10/21 03:36:56;;;;;;;120.32;44.28;;;;;;;12.99;100.00;92845.81;4953576;28;20039;-78
2022/10/21 03:39:23;;;;;;;123.38;44.40;;;;;;;13.00;100.00;92842.09;4950923;28;20126;-78
2022/10/21 03:41:48;;;;;;;138.50;45.63;;;;;;;13.01;100.00;92846.28;4942329;29;20047;-78
2022/10/21 03:44:14;;;;;;;122.82;44.20;;;;;;;13.02;100.00;92849.69;4932077;29;20043;-78
2022/10/21 03:46:40;;;;;;;127.15;45.70;;;;;;;13.00;100.00;92851.84;4954486;29;20043;-79
2022/10/21 03:49:09;;;;;;;125.50;45.67;;;;;;;12.97;100.00;92849.78;4940533;29;20050;-78
2022/10/21 03:51:35;;;;;;;131.40;45.05;;;;;;;12.95;100.00;92849.28;4937602;29;20032;-77
2022/10/21 03:54:00;;;;;;;127.22;45.95;;;;;;;12.94;100.00;92853.78;4943100;29;20039;-78
2022/10/21 03:56:26;;;;;;;124.90;43.90;;;;;;;12.94;100.00;92847.75;4958638;29;20051;-78
2022/10/21 03:59:29;;;;;;;144.13;46.45;;;;;;;12.94;100.00;92831.97;4941764;29;20059;-78
2022/10/21 04:01:54;;;;;;;131.50;46.53;;;;;;;12.93;100.00;92831.22;4939693;29;20119;-78
2022/10/21 04:04:20;;;;;;;129.43;46.45;;;;;;;12.94;100.00;92835.38;4949742;29;20118;-79
2022/10/21 04:06:45;;;;;;;136.98;47.78;;;;;;;12.92;100.00;92829.63;4955931;29;20063;-78
2022/10/21 04:09:11;;;;;;;130.60;46.83;;;;;;;12.91;100.00;92838.59;4924718;29;20039;-78
2022/10/21 04:11:36;;;;;;;135.13;46.72;;;;;;;12.90;100.00;92831.75;4957355;28;20402;-78
2022/10/21 04:14:03;;;;;;;131.55;46.13;;;;;;;12.91;100.00;92831.47;4956001;28;20059;-78
2022/10/21 04:16:33;;;;;;;127.47;46.50;;;;;;;12.87;100.00;92829.72;4957310;28;20060;-79
2022/10/21 04:18:59;;;;;;;157.15;48.60;;;;;;;12.81;100.00;92836.16;4952482;29;20039;-79
2022/10/21 04:21:25;;;;;;;151.60;48.10;;;;;;;12.77;100.00;92827.31;4954558;29;20039;-78
2022/10/21 04:23:50;;;;;;;165.77;52.08;;;;;;;12.76;100.00;92821.25;4952765;29;20031;-79
2022/10/21 04:29:46;;;;;;;145.35;48.00;;;;;;;12.76;100.00;92817.84;4953115;29;20039;-78
2022/10/21 04:32:12;;;;;;;138.77;46.60;;;;;;;12.73;100.00;92821.06;4921638;29;20024;-78
2022/10/21 04:34:37;;;;;;;134.45;46.55;;;;;;;12.73;100.00;92816.59;4930391;29;20044;-81
2022/10/21 04:37:03;;;;;;;134.98;47.50;;;;;;;12.76;100.00;92820.47;4957868;28;20576;-81
2022/10/21 04:39:28;;;;;;;144.18;48.90;;;;;;;12.80;100.00;92821.47;4957380;28;20038;-79
2022/10/21 04:41:54;;;;;;;151.10;48.17;;;;;;;12.77;100.00;92822.06;4939777;29;20451;-79
2022/10/21 04:44:21;;;;;;;129.55;42.67;;;;;;;12.81;100.00;92817.75;4941156;29;20481;-79
2022/10/21 04:46:46;;;;;;;121.60;41.00;;;;;;;12.76;100.00;92816.00;4936136;29;20034;-79
2022/10/21 04:49:12;;;;;;;126.88;40.85;;;;;;;12.75;100.00;92818.94;4954054;28;20047;-79
2022/10/21 04:51:38;;;;;;;116.07;39.47;;;;;;;12.68;100.00;92811.44;4942667;29;20039;-80
2022/10/21 04:54:03;;;;;;;110.90;38.17;;;;;;;12.69;100.00;92810.34;4952901;29;20090;-79
2022/10/21 04:56:31;;;;;;;111.38;37.60;;;;;;;12.66;100.00;92801.22;4954315;29;20050;-78
2022/10/21 04:58:56;;;;;;;129.63;45.75;;;;;;;12.62;100.00;92800.22;4930266;29;20129;-79
2022/10/21 05:01:22;;;;;;;108.97;38.42;;;;;;;12.71;100.00;92806.38;4937213;29;20031;-79
2022/10/21 05:03:47;;;;;;;108.60;40.00;;;;;;;12.67;100.00;92807.25;4950890;28;20050;-78
2022/10/21 05:06:13;;;;;;;122.18;42.63;;;;;;;12.63;100.00;92812.31;4937564;29;20035;-79
2022/10/21 05:08:38;;;;;;;128.90;42.65;;;;;;;12.61;100.00;92806.56;4955831;28;20055;-79
2022/10/21 05:11:04;;;;;;;118.60;41.63;;;;;;;12.61;100.00;92801.31;4957611;29;20066;-80
2022/10/21 05:13:30;;;;;;;129.05;41.63;;;;;;;12.57;100.00;92792.47;4956058;29;20039;-79
2022/10/21 05:16:01;;;;;;;125.05;41.65;;;;;;;12.57;100.00;92789.84;4957163;28;20471;-80
2022/10/21 05:18:27;;;;;;;123.30;42.83;;;;;;;12.56;100.00;92796.13;4951043;28;20038;-79
2022/10/21 05:20:54;;;;;;;125.63;42.25;;;;;;;12.55;100.00;92789.34;4952605;29;20058;-81
2022/10/21 05:23:19;;;;;;;136.57;44.45;;;;;;;12.60;100.00;92798.97;4955256;29;20122;-79
2022/10/21 05:25:46;;;;;;;157.48;48.42;;;;;;;12.54;100.00;92793.03;4955997;29;20504;-79
2022/10/21 05:28:12;;;;;;;155.85;48.03;;;;;;;12.56;100.00;92795.38;4957963;28;20034;-80
2022/10/21 05:30:38;;;;;;;160.10;49.40;;;;;;;12.51;100.00;92788.34;4945930;28;20048;-79
2022/10/21 05:33:03;;;;;;;156.35;47.90;;;;;;;12.55;100.00;92789.34;4937556;29;20039;-80
2022/10/21 05:35:29;;;;;;;143.32;47.00;;;;;;;12.52;100.00;92792.56;4937296;29;20401;-79
2022/10/21 05:37:55;;;;;;;140.77;45.42;;;;;;;12.50;100.00;92782.34;4948389;29;20035;-79
2022/10/21 05:40:20;;;;;;;129.18;45.38;;;;;;;12.47;100.00;92788.19;4931453;29;20051;-78
2022/10/21 05:42:46;;;;;;;122.90;42.53;;;;;;;12.43;100.00;92760.16;4949781;29;20035;-79
2022/10/21 05:45:12;;;;;;;135.77;42.80;;;;;;;12.47;100.00;92764.53;4953681;29;20043;-79
2022/10/21 05:47:40;;;;;;;119.47;40.78;;;;;;;12.47;100.00;92775.03;4955149;29;20516;-79
2022/10/21 05:50:07;;;;;;;120.13;41.08;;;;;;;12.46;100.00;92781.34;4948475;29;20039;-78
2022/10/21 05:52:32;;;;;;;127.72;42.65;;;;;;;12.45;100.00;92773.75;4952299;29;20446;-80
2022/10/21 05:54:58;;;;;;;128.65;41.53;;;;;;;12.47;100.00;92766.38;4938034;29;20123;-78
2022/10/21 05:57:23;;;;;;;138.70;43.15;;;;;;;12.50;100.00;92773.69;4954540;28;20027;-80
2022/10/21 05:59:49;;;;;;;143.93;50.08;;;;;;;12.52;100.00;92784.69;4945328;28;20148;-81
2022/10/21 06:02:15;;;;;;;142.38;50.28;;;;;;;12.51;100.00;92777.84;4924088;29;20176;-81
2022/10/21 06:04:41;;;;;;;138.02;47.88;;;;;;;12.50;100.00;92771.06;4950955;29;20381;-81
2022/10/21 06:07:06;;;;;;;150.50;44.50;;;;;;;12.52;100.00;92768.91;4955306;28;20043;-80
2022/10/21 06:09:32;;;;;;;133.15;43.97;;;;;;;12.52;100.00;92771.56;4953277;29;20417;-78
2022/10/21 06:11:58;;;;;;;130.13;43.80;;;;;;;12.54;100.00;92776.50;4942546;29;20035;-79
2022/10/21 06:14:24;;;;;;;139.27;46.63;;;;;;;12.53;100.00;92778.34;4947087;28;20398;-79
2022/10/21 06:16:50;;;;;;;127.75;41.17;;;;;;;12.54;100.00;92782.53;4941183;29;20047;-79
2022/10/21 06:19:15;;;;;;;141.43;42.65;;;;;;;12.59;100.00;92771.16;4940353;29;20051;-78
2022/10/21 06:21:41;;;;;;;136.52;43.88;;;;;;;12.59;100.00;92771.94;4956025;29;20066;-78
2022/10/21 06:24:06;;;;;;;141.35;42.65;;;;;;;12.60;100.00;92767.47;4933615;29;20053;-78
2022/10/21 06:26:32;;;;;;;144.80;44.00;;;;;;;12.58;100.00;92767.75;4953515;29;20047;-79
2022/10/21 06:28:57;;;;;;;124.45;41.10;;;;;;;12.63;100.00;92774.75;4956928;28;20046;-79
2022/10/21 06:31:23;;;;;;;128.00;42.42;;;;;;;12.64;100.00;92773.69;4953084;29;20046;-80
2022/10/21 06:33:48;;;;;;;129.52;44.38;;;;;;;12.66;100.00;92774.94;4956796;29;20071;-80
2022/10/21 06:36:14;;;;;;;134.57;44.78;;;;;;;12.65;100.00;92770.78;4957885;28;20043;-81
2022/10/21 06:38:40;;;;;;;132.60;43.40;;;;;;;12.62;100.00;92752.19;4958769;28;20097;-79
2022/10/21 06:41:10;;;;;;;127.50;43.20;;;;;;;12.65;100.00;92767.34;4942309;29;20067;-81
2022/10/21 06:43:36;;;;;;;131.48;45.60;;;;;;;12.65;100.00;92777.88;4941762;29;20035;-82
2022/10/21 06:46:06;;;;;;;138.68;41.72;;;;;;;12.65;100.00;92765.53;4957973;28;20602;-82
2022/10/21 06:48:32;;;;;;;130.48;41.60;;;;;;;12.79;100.00;92772.59;4958822;29;20058;-81
2022/10/21 06:51:05;;;;;;;138.80;45.47;;;;;;;12.83;100.00;92784.88;4939424;29;20040;-80
2022/10/21 06:53:33;;;;;;;135.82;44.25;;;;;;;12.73;100.00;92777.19;4946284;29;20027;-80
2022/10/21 06:56:10;;;;;;;152.40;48.92;;;;;;;12.69;100.00;92784.88;4944895;29;20040;-80
2022/10/21 06:58:37;;;;;;;132.07;42.95;;;;;;;12.67;100.00;92770.47;4952283;29;20138;-80
2022/10/21 07:01:08;;;;;;;114.45;40.75;;;;;;;12.66;100.00;92771.56;4955164;28;20082;-79
2022/10/21 07:03:34;;;;;;;131.38;43.78;;;;;;;12.66;100.00;92769.69;4940371;29;20103;-80
2022/10/21 07:05:59;;;;;;;130.00;43.47;;;;;;;12.64;100.00;92782.34;4951803;29;20031;-79
2022/10/21 07:08:29;;;;;;;122.45;43.55;;;;;;;12.68;100.00;92780.69;4966704;28;20110;-78
2022/10/21 07:10:54;;;;;;;124.22;42.35;;;;;;;12.89;100.00;92798.69;4959559;28;20067;-79
2022/10/21 07:13:22;;;;;;;110.38;40.80;;;;;;;12.83;100.00;92787.50;4957866;29;20055;-80
2022/10/21 07:15:56;;;;;;;131.38;46.95;;;;;;;12.72;100.00;92783.50;4952475;29;20032;-80
2022/10/21 07:18:21;;;;;;;163.63;49.58;;;;;;;12.68;100.00;92785.19;4955083;29;20460;-79
2022/10/21 07:20:47;;;;;;;168.95;50.85;;;;;;;12.67;100.00;92779.13;4951180;28;20091;-80
2022/10/21 07:23:12;;;;;;;126.47;43.83;;;;;;;12.68;100.00;92791.19;4943696;28;20126;-80
2022/10/21 07:25:38;;;;;;;124.28;42.60;;;;;;;12.65;100.00;92791.78;4958763;28;20042;-79
2022/10/21 07:28:03;;;;;;;133.68;43.03;;;;;;;12.64;100.00;92777.09;4951753;28;20039;-81
2022/10/21 07:30:29;;;;;;;130.45;42.60;;;;;;;12.64;100.00;92798.09;4957501;28;20035;-80
2022/10/21 07:32:54;;;;;;;129.02;44.00;;;;;;;12.66;100.00;92790.72;4953943;28;20433;-80
2022/10/21 07:35:20;;;;;;;134.88;44.92;;;;;;;12.67;100.00;92799.38;4956154;28;20039;-80
2022/10/21 07:37:45;;;;;;;124.70;44.20;;;;;;;12.67;100.00;92797.50;4951889;28;20098;-80
2022/10/21 07:40:11;;;;;;;134.40;45.13;;;;;;;12.68;100.00;92788.56;4970672;28;20046;-80
2022/10/21 07:42:37;;;;;;;123.35;42.35;;;;;;;12.68;100.00;92788.56;4975294;28;20039;-80
2022/10/21 07:45:02;;;;;;;132.00;43.42;;;;;;;12.69;100.00;92789.34;4975001;28;20489;-78
2022/10/21 07:47:28;;;;;;;129.63;44.47;;;;;;;12.68;100.00;92783.31;4957932;28;20034;-78
2022/10/21 07:49:53;;;;;;;125.55;44.83;;;;;;;12.68;100.00;92785.19;4939212;28;20520;-78
2022/10/21 07:52:19;;;;;;;130.10;46.28;;;;;;;12.72;100.00;92783.50;4938521;29;20042;-80
2022/10/21 07:54:45;;;;;;;130.38;47.55;;;;;;;12.61;100.00;92776.88;4940002;29;20118;-80
2022/10/21 07:57:10;;;;;;;143.05;48.60;;;;;;;12.60;100.00;92768.22;4939966;29;20099;-82
2022/10/21 07:59:36;;;;;;;124.05;45.58;;;;;;;12.60;100.00;92760.34;4957088;28;20047;-80
2022/10/21 08:02:01;;;;;;;126.32;42.05;;;;;;;12.61;100.00;92764.56;4958142;28;20140;-80
2022/10/21 08:04:30;;;;;;;116.57;41.58;;;;;;;12.69;100.00;92761.22;4955269;29;20468;-79
2022/10/21 08:06:56;;;;;;;122.97;42.90;;;;;;;12.60;100.00;92754.31;4958741;28;20082;-80
2022/10/21 08:09:22;;;;;;;118.32;43.17;;;;;;;12.85;100.00;92768.81;4957037;28;20062;-79
2022/10/21 08:11:48;;;;;;;145.77;53.78;;;;;;;12.73;100.00;92781.69;4951495;28;20044;-79
2022/10/21 08:14:14;;;;;;;160.07;58.55;;;;;;;12.68;100.00;92777.28;4944243;29;20032;-79
2022/10/21 08:16:40;;;;;;;127.97;45.72;;;;;;;12.65;100.00;92768.16;4946697;29;20035;-80
2022/10/21 08:19:06;;;;;;;112.57;38.97;;;;;;;12.75;100.00;92766.41;4954945;29;20097;-79
2022/10/21 08:21:32;;;;;;;113.43;41.30;;;;;;;12.66;100.00;92768.94;4945408;29;20070;-80
2022/10/21 08:24:01;;;;;;;120.47;40.83;;;;;;;12.67;100.00;92755.47;4956323;28;20039;-79
2022/10/21 08:26:26;;;;;;;97.95;37.13;;;;;;;12.69;100.00;92750.72;4936669;29;20701;-80
2022/10/21 08:28:52;;;;;;;107.25;40.85;;;;;;;12.55;100.00;92749.94;4942335;29;20041;-79
2022/10/21 08:31:21;;;;;;;131.55;51.92;;;;;;;12.49;100.00;92757.13;4955846;29;20527;-79
2022/10/21 08:33:47;;;;;;;134.05;56.28;;;;;;;12.43;100.00;92766.19;4954523;29;20127;-79
2022/10/21 08:36:17;;;;;;;118.07;43.45;;;;;;;12.55;100.00;92757.81;4955566;29;20405;-80
2022/10/21 08:38:43;;;;;;;141.43;51.42;;;;;;;12.39;100.00;92769.69;4955130;28;20032;-79
2022/10/21 08:41:27;;;;;;;133.32;50.15;;;;;;;12.33;100.00;92757.72;4954788;28;20078;-79
2022/10/21 08:43:57;;;;;;;118.45;42.60;;;;;;;12.32;100.00;92769.28;4951742;29;20437;-79
2022/10/21 08:46:32;;;;;;;125.90;45.80;;;;;;;12.37;100.00;92777.84;4957089;29;20477;-80
2022/10/21 08:49:05;;;;;;;127.38;44.33;;;;;;;12.37;100.00;92783.09;4939893;28;20032;-79
2022/10/21 08:51:36;;;;;;;126.72;43.90;;;;;;;12.35;100.00;92779.19;4955512;28;20066;-80
2022/10/21 08:54:17;;;;;;;134.63;47.10;;;;;;;12.33;100.00;92774.22;4956385;29;20046;-81
2022/10/21 08:56:44;;;;;;;124.32;44.42;;;;;;;12.35;100.00;92785.22;4954177;29;20489;-79
2022/10/21 08:59:21;;;;;;;119.38;42.75;;;;;;;12.40;100.00;92784.34;4955934;29;20058;-79
2022/10/21 09:02:16;;;;;;;118.53;42.97;;;;;;;12.42;100.00;92779.59;4952611;28;20043;-79
2022/10/21 09:04:50;;;;;;;110.88;39.10;;;;;;;12.43;100.00;92781.16;4954680;28;20502;-79
2022/10/21 09:07:55;;;;;;;94.30;35.47;;;;;;;12.66;100.00;92782.84;4956788;29;20078;-78
2022/10/21 09:10:55;;;;;;;122.80;53.03;;;;;;;12.64;100.00;92776.31;4939419;28;20134;-78
2022/10/21 09:13:32;;;;;;;135.15;54.35;;;;;;;12.55;100.00;92776.22;4948943;29;20110;-78
2022/10/21 09:16:26;;;;;;;105.68;42.20;;;;;;;12.53;100.00;92769.69;4939849;29;20189;-78
2022/10/21 09:19:10;;;;;;;120.70;44.17;;;;;;;12.60;100.00;92764.84;4951439;29;20094;-80
2022/10/21 09:21:54;;;;;;;113.25;43.35;;;;;;;12.66;100.00;92772.31;4952147;28;20114;-78
2022/10/21 09:24:34;;;;;;;118.05;42.10;;;;;;;12.65;100.00;92783.91;4940731;28;20055;-78
2022/10/21 09:27:02;;;;;;;97.60;39.63;;;;;;;12.64;100.00;92784.97;4934229;29;20039;-77
2022/10/21 09:29:30;;;;;;;102.90;38.78;;;;;;;12.64;100.00;92794.69;4934880;29;20032;-79
2022/10/21 09:32:08;;;;;;;98.38;36.15;;;;;;;12.61;100.00;92796.06;4938911;29;20127;-78
2022/10/21 09:34:38;;;;;;;102.07;36.05;;;;;;;12.59;100.00;92792.94;4941959;29;20454;-78
2022/10/21 09:37:12;;;;;;;110.75;37.60;;;;;;;12.61;100.00;92777.69;4935579;29;20490;-79
2022/10/21 09:39:54;;;;;;;100.45;37.47;;;;;;;12.62;100.00;92783.72;4934748;29;20048;-78
2022/10/21 09:42:19;;;;;;;91.50;34.92;;;;;;;12.61;100.00;92790.81;4938536;29;20428;-78
2022/10/21 09:44:45;;;;;;;91.75;35.47;;;;;;;12.62;100.00;92788.97;4944582;28;20032;-78
2022/10/21 09:47:20;;;;;;;106.60;37.85;;;;;;;12.63;100.00;92780.00;4935017;29;20044;-78
2022/10/21 09:49:51;;;;;;;104.43;36.33;;;;;;;12.66;100.00;92800.44;4935446;29;20079;-79
2022/10/21 09:52:19;;;;;;;191.65;69.25;;;;;;;12.67;100.00;92797.50;4956681;29;20047;-78
2022/10/21 09:54:46;;;;;;;111.47;42.03;;;;;;;12.67;100.00;92784.38;4952742;28;20479;-79
2022/10/21 09:57:22;;;;;;;109.80;39.70;;;;;;;12.67;100.00;92781.75;4941911;29;20040;-78
2022/10/21 09:59:54;;;;;;;97.35;37.88;;;;;;;12.68;100.00;92783.31;4958088;29;20409;-78
2022/10/21 10:02:42;;;;;;;98.77;37.27;;;;;;;12.73;100.00;92790.31;4958088;28;20540;-79
2022/10/21 10:05:32;;;;;;;94.55;33.95;;;;;;;12.76;100.00;92788.97;4955506;29;20460;-78
2022/10/21 10:07:58;;;;;;;97.30;37.50;;;;;;;12.87;100.00;92795.59;4931167;29;673946;-78
2022/10/21 10:10:31;;;;;;;101.35;39.40;;;;;;;12.88;100.00;92802.41;4957713;29;20494;-79
2022/10/21 10:12:57;;;;;;;101.32;38.90;;;;;;;12.81;100.00;92802.78;4958827;28;20505;-78
2022/10/21 10:15:35;;;;;;;101.82;38.80;;;;;;;12.80;100.00;92797.81;4958739;28;20457;-78
2022/10/21 10:18:01;;;;;;;107.38;41.47;;;;;;;12.83;100.00;92792.75;4948983;28;20044;-78
2022/10/21 10:20:27;;;;;;;112.53;39.50;;;;;;;12.83;100.00;92794.59;4941147;29;20465;-78
2022/10/21 10:22:57;;;;;;;125.22;45.08;;;;;;;12.83;100.00;92795.38;4938807;29;20036;-78
2022/10/21 10:25:25;;;;;;;117.50;42.60;;;;;;;12.82;100.00;92793.81;4938063;29;20046;-78
2022/10/21 10:27:53;;;;;;;110.72;41.10;;;;;;;12.80;100.00;92798.59;4944291;29;20536;-78
2022/10/21 10:30:23;;;;;;;99.65;38.58;;;;;;;12.83;100.00;92805.88;4939041;29;20059;-78
2022/10/21 10:32:52;;;;;;;111.80;39.22;;;;;;;12.78;100.00;92797.34;4940089;29;20044;-78
2022/10/21 10:35:24;;;;;;;122.57;41.47;;;;;;;12.82;100.00;92790.44;4943443;29;20062;-77
2022/10/21 10:37:51;;;;;;;141.25;46.60;;;;;;;12.80;100.00;92793.34;4956549;29;20101;-77
2022/10/21 10:40:23;;;;;;;122.70;42.70;;;;;;;12.84;100.00;92793.53;4942364;29;20204;-78
2022/10/21 10:42:59;;;;;;;111.70;42.17;;;;;;;12.85;100.00;92808.22;4939823;29;20383;-77
2022/10/21 10:45:26;;;;;;;94.90;36.85;;;;;;;12.90;100.00;92802.88;4939695;29;20036;-78
2022/10/21 10:48:02;;;;;;;101.43;39.25;;;;;;;12.88;100.00;92799.78;4939555;29;20028;-77
2022/10/21 10:50:45;;;;;;;109.07;39.53;;;;;;;12.90;100.00;92806.28;4953413;29;20086;-78
2022/10/21 10:53:22;;;;;;;124.90;42.40;;;;;;;12.93;100.00;92793.66;4957505;28;20394;-78
2022/10/21 10:56:16;;;;;;;120.63;42.75;;;;;;;12.97;100.00;92798.03;4956445;28;20095;-79
2022/10/21 10:59:21;;;;;;;119.65;45.20;;;;;;;13.01;100.00;92801.59;4945906;28;20051;-79
2022/10/21 11:02:06;;;;;;;115.85;42.72;;;;;;;13.00;100.00;92805.31;4938323;29;20043;-78
2022/10/21 11:04:53;;;;;;;124.57;43.88;;;;;;;13.03;100.00;92803.94;4928181;29;20048;-78
2022/10/21 11:07:22;;;;;;;129.32;42.10;;;;;;;13.03;100.00;92804.72;4937487;29;20062;-79
2022/10/21 11:09:51;;;;;;;153.82;48.13;;;;;;;12.98;100.00;92802.19;4939397;29;20099;-79
2022/10/21 11:12:25;;;;;;;109.38;41.15;;;;;;;12.99;100.00;92809.03;4952428;29;20047;-79
2022/10/21 11:14:55;;;;;;;125.55;41.58;;;;;;;12.98;100.00;92807.44;4936934;29;20052;-79
2022/10/21 11:17:28;;;;;;;111.25;40.88;;;;;;;12.98;100.00;92801.44;4937124;29;20040;-77
2022/10/21 11:19:57;;;;;;;119.35;39.75;;;;;;;12.99;100.00;92806.41;4937875;29;20071;-79
2022/10/21 11:22:29;;;;;;;101.88;39.88;;;;;;;13.18;100.00;92801.00;4953577;28;20062;-78
2022/10/21 11:25:17;;;;;;;109.38;39.75;;;;;;;13.04;100.00;92801.03;4957951;29;20058;-79
2022/10/21 11:27:51;;;;;;;106.15;39.13;;;;;;;13.04;100.00;92801.03;4955851;29;20445;-79
2022/10/21 11:30:20;;;;;;;110.35;38.17;;;;;;;12.95;100.00;92797.53;4941980;28;20043;-78
2022/10/21 11:33:03;;;;;;;104.38;41.03;;;;;;;13.10;100.00;92806.94;4941233;29;20043;-79
2022/10/21 11:35:47;;;;;;;107.40;41.10;;;;;;;12.92;100.00;92792.84;4939238;29;20040;-79
2022/10/21 11:38:12;;;;;;;112.07;41.70;;;;;;;12.77;100.00;92795.78;4938787;29;20036;-79
2022/10/21 11:40:53;;;;;;;116.43;41.17;;;;;;;12.83;100.00;92789.34;4941379;29;20027;-79